sensor_id;sensor_type;location;lat;lon;timestamp;P1;durP1;ratioP1;P2;durP2;ratioP2
49934;SDS011;39898;41.762;26.200;2022-11-15T00:00:55;48.35;;;27.67;;
49934;SDS011;39898;41.762;26.200;2022-11-15T00:03:26;49.08;;;27.00;;
49934;SDS011;39898;41.762;26.200;2022-11-15T00:05:54;53.33;;;25.15;;
49934;SDS011;39898;41.762;26.200;2022-11-15T00:08:20;51.10;;;28.15;;
49934;SDS011;39898;41.762;26.200;2022-11-15T00:10:56;48.15;;;26.90;;
49934;SDS011;39898;41.762;26.200;2022-11-15T00:13:24;47.95;;;26.20;;
49934;SDS011;39898;41.762;26.200;2022-11-15T00:15:52;48.75;;;27.00;;
49934;SDS011;39898;41.762;26.200;2022-11-15T00:18:18;49.78;;;26.30;;
49934;SDS011;39898;41.762;26.200;2022-11-15T00:20:45;46.17;;;24.77;;
49934;SDS011;39898;41.762;26.200;2022-11-15T00:23:12;46.47;;;24.83;;
49934;SDS011;39898;41.762;26.200;2022-11-15T00:25:39;49.78;;;26.10;;
49934;SDS011;39898;41.762;26.200;2022-11-15T00:28:05;49.10;;;25.27;;
49934;SDS011;39898;41.762;26.200;2022-11-15T00:30:32;50.47;;;25.13;;
49934;SDS011;39898;41.762;26.200;2022-11-15T00:33:03;49.25;;;26.15;;
49934;SDS011;39898;41.762;26.200;2022-11-15T00:35:33;45.70;;;24.65;;
49934;SDS011;39898;41.762;26.200;2022-11-15T00:38:01;54.42;;;26.08;;
49934;SDS011;39898;41.762;26.200;2022-11-15T00:40:28;50.13;;;26.08;;
49934;SDS011;39898;41.762;26.200;2022-11-15T00:42:55;57.33;;;29.08;;
49934;SDS011;39898;41.762;26.200;2022-11-15T00:45:23;53.33;;;28.17;;
49934;SDS011;39898;41.762;26.200;2022-11-15T00:47:50;42.92;;;25.65;;
49934;SDS011;39898;41.762;26.200;2022-11-15T00:50:16;51.85;;;26.20;;
49934;SDS011;39898;41.762;26.200;2022-11-15T00:52:44;46.73;;;27.43;;
49934;SDS011;39898;41.762;26.200;2022-11-15T00:55:15;50.80;;;26.35;;
49934;SDS011;39898;41.762;26.200;2022-11-15T00:57:43;51.03;;;27.02;;
49934;SDS011;39898;41.762;26.200;2022-11-15T01:00:10;53.42;;;27.20;;
49934;SDS011;39898;41.762;26.200;2022-11-15T01:02:37;52.70;;;27.45;;
49934;SDS011;39898;41.762;26.200;2022-11-15T01:05:05;55.55;;;28.98;;
49934;SDS011;39898;41.762;26.200;2022-11-15T01:07:32;59.58;;;29.70;;
49934;SDS011;39898;41.762;26.200;2022-11-15T01:09:58;60.35;;;31.65;;
49934;SDS011;39898;41.762;26.200;2022-11-15T01:12:25;62.42;;;31.75;;
49934;SDS011;39898;41.762;26.200;2022-11-15T01:14:52;68.45;;;33.80;;
49934;SDS011;39898;41.762;26.200;2022-11-15T01:17:18;66.40;;;33.90;;
49934;SDS011;39898;41.762;26.200;2022-11-15T01:19:45;60.92;;;34.50;;
49934;SDS011;39898;41.762;26.200;2022-11-15T01:22:12;69.07;;;36.33;;
49934;SDS011;39898;41.762;26.200;2022-11-15T01:24:39;64.28;;;36.60;;
49934;SDS011;39898;41.762;26.200;2022-11-15T01:27:05;70.00;;;37.67;;
49934;SDS011;39898;41.762;26.200;2022-11-15T01:29:32;77.53;;;37.83;;
49934;SDS011;39898;41.762;26.200;2022-11-15T01:31:59;77.80;;;38.17;;
49934;SDS011;39898;41.762;26.200;2022-11-15T01:34:26;73.95;;;38.13;;
49934;SDS011;39898;41.762;26.200;2022-11-15T01:36:52;63.97;;;37.20;;
49934;SDS011;39898;41.762;26.200;2022-11-15T01:39:19;63.85;;;36.55;;
49934;SDS011;39898;41.762;26.200;2022-11-15T01:41:46;63.50;;;36.35;;
49934;SDS011;39898;41.762;26.200;2022-11-15T01:47:01;67.78;;;36.33;;
49934;SDS011;39898;41.762;26.200;2022-11-15T01:49:33;66.32;;;38.80;;
49934;SDS011;39898;41.762;26.200;2022-11-15T01:52:05;69.53;;;37.47;;
49934;SDS011;39898;41.762;26.200;2022-11-15T01:54:36;72.45;;;37.90;;
49934;SDS011;39898;41.762;26.200;2022-11-15T01:57:04;78.20;;;39.65;;
49934;SDS011;39898;41.762;26.200;2022-11-15T01:59:36;76.72;;;40.35;;
49934;SDS011;39898;41.762;26.200;2022-11-15T02:02:08;76.18;;;39.88;;
49934;SDS011;39898;41.762;26.200;2022-11-15T02:04:36;70.57;;;37.88;;
49934;SDS011;39898;41.762;26.200;2022-11-15T02:07:07;73.28;;;37.85;;
49934;SDS011;39898;41.762;26.200;2022-11-15T02:09:36;76.68;;;37.30;;
49934;SDS011;39898;41.762;26.200;2022-11-15T02:12:03;73.97;;;37.03;;
49934;SDS011;39898;41.762;26.200;2022-11-15T02:17:10;76.90;;;39.72;;
49934;SDS011;39898;41.762;26.200;2022-11-15T02:31:06;77.63;;;38.28;;
49934;SDS011;39898;41.762;26.200;2022-11-15T02:39:08;77.13;;;40.70;;
49934;SDS011;39898;41.762;26.200;2022-11-15T02:41:53;76.97;;;39.25;;
49934;SDS011;39898;41.762;26.200;2022-11-15T02:44:43;87.93;;;42.72;;
49934;SDS011;39898;41.762;26.200;2022-11-15T02:47:12;91.65;;;45.60;;
49934;SDS011;39898;41.762;26.200;2022-11-15T02:49:46;82.07;;;42.78;;
49934;SDS011;39898;41.762;26.200;2022-11-15T02:52:21;85.07;;;43.92;;
49934;SDS011;39898;41.762;26.200;2022-11-15T02:54:55;77.97;;;41.05;;
49934;SDS011;39898;41.762;26.200;2022-11-15T03:00:17;84.55;;;40.33;;
49934;SDS011;39898;41.762;26.200;2022-11-15T03:08:08;88.72;;;42.97;;
49934;SDS011;39898;41.762;26.200;2022-11-15T03:11:20;87.78;;;40.97;;
49934;SDS011;39898;41.762;26.200;2022-11-15T03:13:41;81.40;;;41.10;;
49934;SDS011;39898;41.762;26.200;2022-11-15T03:18:52;95.55;;;40.25;;
49934;SDS011;39898;41.762;26.200;2022-11-15T03:21:41;84.88;;;39.95;;
49934;SDS011;39898;41.762;26.200;2022-11-15T03:24:10;93.72;;;42.72;;
49934;SDS011;39898;41.762;26.200;2022-11-15T03:26:40;91.68;;;40.47;;
49934;SDS011;39898;41.762;26.200;2022-11-15T03:29:13;81.75;;;38.72;;
49934;SDS011;39898;41.762;26.200;2022-11-15T03:31:45;91.50;;;40.30;;
49934;SDS011;39898;41.762;26.200;2022-11-15T03:34:22;95.32;;;40.25;;
49934;SDS011;39898;41.762;26.200;2022-11-15T03:36:50;86.00;;;40.53;;
49934;SDS011;39898;41.762;26.200;2022-11-15T03:41:56;95.10;;;39.45;;
49934;SDS011;39898;41.762;26.200;2022-11-15T03:44:46;89.90;;;41.53;;
49934;SDS011;39898;41.762;26.200;2022-11-15T03:47:36;84.82;;;38.90;;
49934;SDS011;39898;41.762;26.200;2022-11-15T03:50:16;92.13;;;38.92;;
49934;SDS011;39898;41.762;26.200;2022-11-15T03:52:46;85.18;;;38.60;;
49934;SDS011;39898;41.762;26.200;2022-11-15T03:55:17;93.05;;;39.95;;
49934;SDS011;39898;41.762;26.200;2022-11-15T03:57:46;96.70;;;42.22;;
49934;SDS011;39898;41.762;26.200;2022-11-15T04:00:15;89.63;;;41.35;;
49934;SDS011;39898;41.762;26.200;2022-11-15T04:02:42;93.93;;;42.45;;
49934;SDS011;39898;41.762;26.200;2022-11-15T04:05:09;94.57;;;41.53;;
49934;SDS011;39898;41.762;26.200;2022-11-15T04:07:35;89.25;;;40.92;;
49934;SDS011;39898;41.762;26.200;2022-11-15T04:10:02;90.70;;;42.10;;
49934;SDS011;39898;41.762;26.200;2022-11-15T04:12:30;77.47;;;37.75;;
49934;SDS011;39898;41.762;26.200;2022-11-15T04:14:58;106.78;;;45.45;;
49934;SDS011;39898;41.762;26.200;2022-11-15T04:20:06;91.57;;;42.80;;
49934;SDS011;39898;41.762;26.200;2022-11-15T04:23:00;96.85;;;42.88;;
49934;SDS011;39898;41.762;26.200;2022-11-15T04:25:46;96.13;;;43.13;;
49934;SDS011;39898;41.762;26.200;2022-11-15T04:28:16;95.05;;;42.95;;
49934;SDS011;39898;41.762;26.200;2022-11-15T04:30:43;92.45;;;41.38;;
49934;SDS011;39898;41.762;26.200;2022-11-15T04:33:09;92.43;;;41.03;;
49934;SDS011;39898;41.762;26.200;2022-11-15T04:35:36;93.30;;;42.65;;
49934;SDS011;39898;41.762;26.200;2022-11-15T04:38:03;97.93;;;43.08;;
49934;SDS011;39898;41.762;26.200;2022-11-15T04:40:32;100.88;;;43.45;;
49934;SDS011;39898;41.762;26.200;2022-11-15T04:42:59;118.40;;;45.95;;
49934;SDS011;39898;41.762;26.200;2022-11-15T04:45:29;99.22;;;42.88;;
49934;SDS011;39898;41.762;26.200;2022-11-15T04:47:56;103.70;;;45.60;;
49934;SDS011;39898;41.762;26.200;2022-11-15T04:50:23;101.47;;;42.95;;
49934;SDS011;39898;41.762;26.200;2022-11-15T04:52:51;99.70;;;45.00;;
49934;SDS011;39898;41.762;26.200;2022-11-15T04:55:19;109.68;;;46.72;;
49934;SDS011;39898;41.762;26.200;2022-11-15T04:57:46;108.20;;;48.58;;
49934;SDS011;39898;41.762;26.200;2022-11-15T05:00:13;108.85;;;47.33;;
49934;SDS011;39898;41.762;26.200;2022-11-15T05:02:43;102.00;;;42.20;;
49934;SDS011;39898;41.762;26.200;2022-11-15T05:05:28;96.15;;;43.95;;
49934;SDS011;39898;41.762;26.200;2022-11-15T05:07:55;101.47;;;41.92;;
49934;SDS011;39898;41.762;26.200;2022-11-15T05:10:21;96.93;;;40.83;;
49934;SDS011;39898;41.762;26.200;2022-11-15T05:12:48;101.43;;;45.42;;
49934;SDS011;39898;41.762;26.200;2022-11-15T05:15:15;103.22;;;46.45;;
49934;SDS011;39898;41.762;26.200;2022-11-15T05:17:41;103.03;;;48.58;;
49934;SDS011;39898;41.762;26.200;2022-11-15T05:20:08;97.90;;;46.70;;
49934;SDS011;39898;41.762;26.200;2022-11-15T05:22:35;114.45;;;50.25;;
49934;SDS011;39898;41.762;26.200;2022-11-15T05:25:02;114.93;;;50.05;;
49934;SDS011;39898;41.762;26.200;2022-11-15T05:27:29;119.50;;;45.13;;
49934;SDS011;39898;41.762;26.200;2022-11-15T05:29:56;94.90;;;41.53;;
49934;SDS011;39898;41.762;26.200;2022-11-15T05:32:23;85.07;;;38.67;;
49934;SDS011;39898;41.762;26.200;2022-11-15T05:34:50;93.45;;;41.75;;
49934;SDS011;39898;41.762;26.200;2022-11-15T05:37:17;95.95;;;41.45;;
49934;SDS011;39898;41.762;26.200;2022-11-15T05:39:44;95.38;;;41.60;;
49934;SDS011;39898;41.762;26.200;2022-11-15T05:42:14;88.57;;;38.75;;
49934;SDS011;39898;41.762;26.200;2022-11-15T05:44:43;93.03;;;41.28;;
49934;SDS011;39898;41.762;26.200;2022-11-15T05:47:15;97.63;;;41.08;;
49934;SDS011;39898;41.762;26.200;2022-11-15T05:49:46;94.20;;;40.95;;
49934;SDS011;39898;41.762;26.200;2022-11-15T05:52:17;96.63;;;41.95;;
49934;SDS011;39898;41.762;26.200;2022-11-15T05:54:47;101.07;;;41.08;;
49934;SDS011;39898;41.762;26.200;2022-11-15T05:57:15;99.50;;;42.67;;
49934;SDS011;39898;41.762;26.200;2022-11-15T05:59:42;95.00;;;43.73;;
49934;SDS011;39898;41.762;26.200;2022-11-15T06:02:10;108.32;;;42.85;;
49934;SDS011;39898;41.762;26.200;2022-11-15T06:04:37;104.57;;;41.97;;
49934;SDS011;39898;41.762;26.200;2022-11-15T06:07:04;98.28;;;40.17;;
49934;SDS011;39898;41.762;26.200;2022-11-15T06:09:31;91.70;;;40.42;;
49934;SDS011;39898;41.762;26.200;2022-11-15T06:11:57;91.32;;;40.80;;
49934;SDS011;39898;41.762;26.200;2022-11-15T06:14:24;96.63;;;40.35;;
49934;SDS011;39898;41.762;26.200;2022-11-15T06:16:51;89.45;;;38.78;;
49934;SDS011;39898;41.762;26.200;2022-11-15T06:19:17;91.32;;;39.92;;
49934;SDS011;39898;41.762;26.200;2022-11-15T06:21:44;86.57;;;37.47;;
49934;SDS011;39898;41.762;26.200;2022-11-15T06:24:10;97.25;;;39.70;;
49934;SDS011;39898;41.762;26.200;2022-11-15T06:26:37;98.00;;;41.05;;
49934;SDS011;39898;41.762;26.200;2022-11-15T06:29:04;98.50;;;40.20;;
49934;SDS011;39898;41.762;26.200;2022-11-15T06:31:31;104.40;;;41.80;;
49934;SDS011;39898;41.762;26.200;2022-11-15T06:33:58;96.75;;;41.65;;
49934;SDS011;39898;41.762;26.200;2022-11-15T06:36:24;90.22;;;41.22;;
49934;SDS011;39898;41.762;26.200;2022-11-15T06:38:51;101.15;;;42.33;;
49934;SDS011;39898;41.762;26.200;2022-11-15T06:41:17;101.97;;;44.33;;
49934;SDS011;39898;41.762;26.200;2022-11-15T06:43:44;96.53;;;42.20;;
49934;SDS011;39898;41.762;26.200;2022-11-15T06:48:39;118.65;;;54.55;;
49934;SDS011;39898;41.762;26.200;2022-11-15T06:51:05;142.48;;;67.90;;
49934;SDS011;39898;41.762;26.200;2022-11-15T06:53:34;124.50;;;59.05;;
49934;SDS011;39898;41.762;26.200;2022-11-15T06:56:02;114.55;;;49.65;;
49934;SDS011;39898;41.762;26.200;2022-11-15T06:58:30;94.32;;;45.70;;
49934;SDS011;39898;41.762;26.200;2022-11-15T07:00:58;108.43;;;46.25;;
49934;SDS011;39898;41.762;26.200;2022-11-15T07:03:26;119.22;;;54.08;;
49934;SDS011;39898;41.762;26.200;2022-11-15T07:05:53;107.47;;;50.60;;
49934;SDS011;39898;41.762;26.200;2022-11-15T07:10:48;97.45;;;44.95;;
49934;SDS011;39898;41.762;26.200;2022-11-15T07:13:15;95.15;;;40.13;;
49934;SDS011;39898;41.762;26.200;2022-11-15T07:15:42;83.88;;;38.55;;
49934;SDS011;39898;41.762;26.200;2022-11-15T07:18:09;90.85;;;37.58;;
49934;SDS011;39898;41.762;26.200;2022-11-15T07:20:35;85.50;;;38.47;;
49934;SDS011;39898;41.762;26.200;2022-11-15T07:23:03;80.40;;;35.17;;
49934;SDS011;39898;41.762;26.200;2022-11-15T07:25:31;87.72;;;37.55;;
49934;SDS011;39898;41.762;26.200;2022-11-15T07:27:58;83.10;;;36.30;;
49934;SDS011;39898;41.762;26.200;2022-11-15T07:30:26;81.07;;;34.78;;
49934;SDS011;39898;41.762;26.200;2022-11-15T07:32:54;92.68;;;38.05;;
49934;SDS011;39898;41.762;26.200;2022-11-15T07:35:27;76.32;;;35.92;;
49934;SDS011;39898;41.762;26.200;2022-11-15T07:37:56;95.25;;;36.08;;
49934;SDS011;39898;41.762;26.200;2022-11-15T07:40:27;88.47;;;36.50;;
49934;SDS011;39898;41.762;26.200;2022-11-15T07:45:25;83.78;;;34.45;;
49934;SDS011;39898;41.762;26.200;2022-11-15T07:47:52;85.43;;;37.28;;
49934;SDS011;39898;41.762;26.200;2022-11-15T07:50:19;83.45;;;36.25;;
49934;SDS011;39898;41.762;26.200;2022-11-15T07:52:46;81.05;;;36.70;;
49934;SDS011;39898;41.762;26.200;2022-11-15T07:55:13;88.40;;;36.22;;
49934;SDS011;39898;41.762;26.200;2022-11-15T07:57:40;86.88;;;37.92;;
49934;SDS011;39898;41.762;26.200;2022-11-15T08:00:06;86.70;;;35.85;;
49934;SDS011;39898;41.762;26.200;2022-11-15T08:02:34;82.53;;;36.72;;
49934;SDS011;39898;41.762;26.200;2022-11-15T08:05:00;83.22;;;35.10;;
49934;SDS011;39898;41.762;26.200;2022-11-15T08:07:30;77.88;;;34.95;;
49934;SDS011;39898;41.762;26.200;2022-11-15T08:09:57;71.05;;;32.13;;
49934;SDS011;39898;41.762;26.200;2022-11-15T08:12:24;84.40;;;35.30;;
49934;SDS011;39898;41.762;26.200;2022-11-15T08:14:51;78.82;;;33.10;;
49934;SDS011;39898;41.762;26.200;2022-11-15T08:17:18;85.63;;;36.30;;
49934;SDS011;39898;41.762;26.200;2022-11-15T08:19:44;84.07;;;37.80;;
49934;SDS011;39898;41.762;26.200;2022-11-15T08:22:11;84.47;;;36.05;;
49934;SDS011;39898;41.762;26.200;2022-11-15T08:24:37;81.70;;;35.83;;
49934;SDS011;39898;41.762;26.200;2022-11-15T08:27:04;74.40;;;33.35;;
49934;SDS011;39898;41.762;26.200;2022-11-15T08:29:31;79.85;;;35.53;;
49934;SDS011;39898;41.762;26.200;2022-11-15T08:31:58;83.57;;;35.92;;
49934;SDS011;39898;41.762;26.200;2022-11-15T08:34:24;80.28;;;33.17;;
49934;SDS011;39898;41.762;26.200;2022-11-15T08:36:51;84.38;;;33.58;;
49934;SDS011;39898;41.762;26.200;2022-11-15T08:39:17;81.55;;;35.72;;
49934;SDS011;39898;41.762;26.200;2022-11-15T08:41:44;77.60;;;33.22;;
49934;SDS011;39898;41.762;26.200;2022-11-15T08:44:11;77.22;;;36.63;;
49934;SDS011;39898;41.762;26.200;2022-11-15T08:46:37;77.30;;;35.22;;
49934;SDS011;39898;41.762;26.200;2022-11-15T08:49:04;73.22;;;32.47;;
49934;SDS011;39898;41.762;26.200;2022-11-15T08:51:31;75.53;;;32.53;;
49934;SDS011;39898;41.762;26.200;2022-11-15T08:53:57;79.68;;;34.42;;
49934;SDS011;39898;41.762;26.200;2022-11-15T08:56:24;70.78;;;34.03;;
49934;SDS011;39898;41.762;26.200;2022-11-15T08:58:51;74.25;;;33.53;;
49934;SDS011;39898;41.762;26.200;2022-11-15T09:01:18;70.38;;;33.95;;
49934;SDS011;39898;41.762;26.200;2022-11-15T09:03:46;73.90;;;34.92;;
49934;SDS011;39898;41.762;26.200;2022-11-15T09:06:14;76.07;;;35.00;;
49934;SDS011;39898;41.762;26.200;2022-11-15T09:08:41;74.20;;;34.85;;
49934;SDS011;39898;41.762;26.200;2022-11-15T09:11:13;71.20;;;33.45;;
49934;SDS011;39898;41.762;26.200;2022-11-15T09:13:44;73.80;;;34.40;;
49934;SDS011;39898;41.762;26.200;2022-11-15T09:16:11;66.43;;;31.15;;
49934;SDS011;39898;41.762;26.200;2022-11-15T09:18:38;70.43;;;32.73;;
49934;SDS011;39898;41.762;26.200;2022-11-15T09:21:05;81.30;;;33.03;;
49934;SDS011;39898;41.762;26.200;2022-11-15T09:23:32;60.97;;;30.02;;
49934;SDS011;39898;41.762;26.200;2022-11-15T09:26:00;68.03;;;30.90;;
49934;SDS011;39898;41.762;26.200;2022-11-15T09:28:28;63.45;;;30.30;;
49934;SDS011;39898;41.762;26.200;2022-11-15T09:33:27;63.95;;;30.38;;
49934;SDS011;39898;41.762;26.200;2022-11-15T09:38:33;58.05;;;29.92;;
49934;SDS011;39898;41.762;26.200;2022-11-15T09:49:25;58.17;;;27.23;;
49934;SDS011;39898;41.762;26.200;2022-11-15T09:51:53;75.68;;;29.20;;
49934;SDS011;39898;41.762;26.200;2022-11-15T10:00:42;53.28;;;26.40;;
49934;SDS011;39898;41.762;26.200;2022-11-15T10:03:33;56.75;;;26.67;;
49934;SDS011;39898;41.762;26.200;2022-11-15T10:06:02;56.63;;;27.25;;
49934;SDS011;39898;41.762;26.200;2022-11-15T10:08:45;51.40;;;25.02;;
49934;SDS011;39898;41.762;26.200;2022-11-15T10:11:19;52.63;;;24.75;;
49934;SDS011;39898;41.762;26.200;2022-11-15T10:19:26;52.40;;;26.38;;
49934;SDS011;39898;41.762;26.200;2022-11-15T10:24:47;44.80;;;23.42;;
49934;SDS011;39898;41.762;26.200;2022-11-15T10:27:15;44.13;;;22.95;;
49934;SDS011;39898;41.762;26.200;2022-11-15T10:29:47;47.33;;;23.63;;
49934;SDS011;39898;41.762;26.200;2022-11-15T10:32:19;38.78;;;20.70;;
49934;SDS011;39898;41.762;26.200;2022-11-15T10:34:47;42.70;;;22.73;;
49934;SDS011;39898;41.762;26.200;2022-11-15T10:37:22;45.58;;;22.58;;
49934;SDS011;39898;41.762;26.200;2022-11-15T10:43:03;36.53;;;20.38;;
49934;SDS011;39898;41.762;26.200;2022-11-15T10:45:36;46.03;;;21.73;;
49934;SDS011;39898;41.762;26.200;2022-11-15T10:50:40;37.95;;;20.13;;
49934;SDS011;39898;41.762;26.200;2022-11-15T10:55:47;40.33;;;21.05;;
49934;SDS011;39898;41.762;26.200;2022-11-15T10:58:36;39.80;;;19.75;;
49934;SDS011;39898;41.762;26.200;2022-11-15T11:01:10;41.55;;;22.30;;
49934;SDS011;39898;41.762;26.200;2022-11-15T11:03:40;42.58;;;22.83;;
49934;SDS011;39898;41.762;26.200;2022-11-15T11:06:13;40.97;;;22.58;;
49934;SDS011;39898;41.762;26.200;2022-11-15T11:08:53;44.47;;;23.02;;
49934;SDS011;39898;41.762;26.200;2022-11-15T11:14:31;42.45;;;23.98;;
49934;SDS011;39898;41.762;26.200;2022-11-15T11:31:05;56.05;;;29.13;;
49934;SDS011;39898;41.762;26.200;2022-11-15T11:45:15;63.58;;;30.42;;
49934;SDS011;39898;41.762;26.200;2022-11-15T11:48:12;63.67;;;31.67;;
49934;SDS011;39898;41.762;26.200;2022-11-15T11:50:47;58.78;;;31.00;;
49934;SDS011;39898;41.762;26.200;2022-11-15T11:53:21;48.25;;;26.63;;
49934;SDS011;39898;41.762;26.200;2022-11-15T11:55:54;39.05;;;23.60;;
49934;SDS011;39898;41.762;26.200;2022-11-15T12:04:11;43.10;;;25.65;;
49934;SDS011;39898;41.762;26.200;2022-11-15T12:12:58;43.97;;;25.27;;
49934;SDS011;39898;41.762;26.200;2022-11-15T12:15:26;36.50;;;21.38;;
49934;SDS011;39898;41.762;26.200;2022-11-15T12:17:58;37.40;;;22.13;;
49934;SDS011;39898;41.762;26.200;2022-11-15T12:20:29;29.83;;;18.95;;
49934;SDS011;39898;41.762;26.200;2022-11-15T12:23:03;30.80;;;20.27;;
49934;SDS011;39898;41.762;26.200;2022-11-15T12:30:53;34.83;;;19.50;;
49934;SDS011;39898;41.762;26.200;2022-11-15T12:33:40;38.47;;;23.10;;
49934;SDS011;39898;41.762;26.200;2022-11-15T12:36:10;50.05;;;24.27;;
49934;SDS011;39898;41.762;26.200;2022-11-15T12:41:26;38.95;;;21.20;;
49934;SDS011;39898;41.762;26.200;2022-11-15T12:43:57;34.03;;;19.58;;
49934;SDS011;39898;41.762;26.200;2022-11-15T13:02:20;33.60;;;19.80;;
49934;SDS011;39898;41.762;26.200;2022-11-15T13:12:55;32.03;;;20.02;;
49934;SDS011;39898;41.762;26.200;2022-11-15T13:15:31;39.13;;;21.67;;
49934;SDS011;39898;41.762;26.200;2022-11-15T13:21:18;33.97;;;20.83;;
49934;SDS011;39898;41.762;26.200;2022-11-15T13:24:10;37.60;;;23.30;;
49934;SDS011;39898;41.762;26.200;2022-11-15T13:26:39;43.22;;;23.98;;
49934;SDS011;39898;41.762;26.200;2022-11-15T13:29:17;43.90;;;23.50;;
49934;SDS011;39898;41.762;26.200;2022-11-15T13:31:45;30.50;;;17.38;;
49934;SDS011;39898;41.762;26.200;2022-11-15T13:34:32;44.08;;;24.30;;
49934;SDS011;39898;41.762;26.200;2022-11-15T13:39:48;30.35;;;19.45;;
49934;SDS011;39898;41.762;26.200;2022-11-15T13:42:16;31.55;;;18.25;;
49934;SDS011;39898;41.762;26.200;2022-11-15T13:44:55;34.00;;;20.42;;
49934;SDS011;39898;41.762;26.200;2022-11-15T13:47:24;38.35;;;20.58;;
49934;SDS011;39898;41.762;26.200;2022-11-15T13:49:59;32.28;;;19.77;;
49934;SDS011;39898;41.762;26.200;2022-11-15T13:52:30;41.85;;;23.98;;
49934;SDS011;39898;41.762;26.200;2022-11-15T13:55:02;38.88;;;22.02;;
49934;SDS011;39898;41.762;26.200;2022-11-15T13:57:42;42.10;;;23.52;;
49934;SDS011;39898;41.762;26.200;2022-11-15T14:00:46;54.22;;;25.85;;
49934;SDS011;39898;41.762;26.200;2022-11-15T14:06:06;45.72;;;24.95;;
49934;SDS011;39898;41.762;26.200;2022-11-15T14:08:42;45.95;;;25.27;;
49934;SDS011;39898;41.762;26.200;2022-11-15T14:11:29;44.03;;;25.13;;
49934;SDS011;39898;41.762;26.200;2022-11-15T14:19:03;49.70;;;27.25;;
49934;SDS011;39898;41.762;26.200;2022-11-15T14:21:32;45.30;;;26.25;;
49934;SDS011;39898;41.762;26.200;2022-11-15T14:24:18;49.90;;;26.50;;
49934;SDS011;39898;41.762;26.200;2022-11-15T14:26:46;55.47;;;28.77;;
49934;SDS011;39898;41.762;26.200;2022-11-15T14:29:26;49.83;;;26.45;;
49934;SDS011;39898;41.762;26.200;2022-11-15T14:32:05;49.63;;;28.15;;
49934;SDS011;39898;41.762;26.200;2022-11-15T14:34:40;50.95;;;27.75;;
49934;SDS011;39898;41.762;26.200;2022-11-15T14:37:19;51.92;;;28.00;;
49934;SDS011;39898;41.762;26.200;2022-11-15T14:39:50;55.60;;;30.75;;
49934;SDS011;39898;41.762;26.200;2022-11-15T14:42:17;59.60;;;31.37;;
49934;SDS011;39898;41.762;26.200;2022-11-15T14:44:45;62.10;;;31.77;;
49934;SDS011;39898;41.762;26.200;2022-11-15T14:47:12;62.88;;;35.35;;
49934;SDS011;39898;41.762;26.200;2022-11-15T14:49:39;69.07;;;35.33;;
49934;SDS011;39898;41.762;26.200;2022-11-15T14:54:58;77.00;;;37.38;;
49934;SDS011;39898;41.762;26.200;2022-11-15T14:57:27;78.85;;;38.65;;
49934;SDS011;39898;41.762;26.200;2022-11-15T14:59:55;83.35;;;39.55;;
49934;SDS011;39898;41.762;26.200;2022-11-15T15:02:23;83.47;;;39.28;;
49934;SDS011;39898;41.762;26.200;2022-11-15T15:04:51;82.10;;;39.15;;
49934;SDS011;39898;41.762;26.200;2022-11-15T15:07:19;77.70;;;39.30;;
49934;SDS011;39898;41.762;26.200;2022-11-15T15:09:46;70.85;;;36.78;;
49934;SDS011;39898;41.762;26.200;2022-11-15T15:12:17;76.53;;;37.95;;
49934;SDS011;39898;41.762;26.200;2022-11-15T15:14:46;67.45;;;36.83;;
49934;SDS011;39898;41.762;26.200;2022-11-15T15:17:14;75.70;;;36.35;;
49934;SDS011;39898;41.762;26.200;2022-11-15T15:19:41;79.37;;;38.23;;
49934;SDS011;39898;41.762;26.200;2022-11-15T15:22:12;72.15;;;36.72;;
49934;SDS011;39898;41.762;26.200;2022-11-15T15:24:44;77.25;;;38.20;;
49934;SDS011;39898;41.762;26.200;2022-11-15T15:27:12;76.18;;;41.13;;
49934;SDS011;39898;41.762;26.200;2022-11-15T15:29:39;85.72;;;41.22;;
49934;SDS011;39898;41.762;26.200;2022-11-15T15:32:07;80.43;;;40.95;;
49934;SDS011;39898;41.762;26.200;2022-11-15T15:34:35;95.97;;;44.25;;
49934;SDS011;39898;41.762;26.200;2022-11-15T15:39:49;102.50;;;47.60;;
49934;SDS011;39898;41.762;26.200;2022-11-15T15:42:25;103.90;;;47.05;;
49934;SDS011;39898;41.762;26.200;2022-11-15T15:44:51;110.13;;;50.92;;
49934;SDS011;39898;41.762;26.200;2022-11-15T15:47:19;106.47;;;53.03;;
49934;SDS011;39898;41.762;26.200;2022-11-15T15:49:47;106.45;;;53.13;;
49934;SDS011;39898;41.762;26.200;2022-11-15T15:52:15;110.07;;;54.55;;
49934;SDS011;39898;41.762;26.200;2022-11-15T15:54:42;116.45;;;53.03;;
49934;SDS011;39898;41.762;26.200;2022-11-15T15:57:10;127.13;;;54.22;;
49934;SDS011;39898;41.762;26.200;2022-11-15T15:59:40;132.43;;;55.00;;
49934;SDS011;39898;41.762;26.200;2022-11-15T16:02:14;139.70;;;59.33;;
49934;SDS011;39898;41.762;26.200;2022-11-15T16:04:41;164.63;;;69.95;;
49934;SDS011;39898;41.762;26.200;2022-11-15T16:07:12;159.23;;;65.72;;
49934;SDS011;39898;41.762;26.200;2022-11-15T16:09:44;195.77;;;79.78;;
49934;SDS011;39898;41.762;26.200;2022-11-15T16:12:39;250.63;;;105.55;;
49934;SDS011;39898;41.762;26.200;2022-11-15T16:15:07;276.38;;;118.38;;
49934;SDS011;39898;41.762;26.200;2022-11-15T16:17:35;309.08;;;131.25;;
49934;SDS011;39898;41.762;26.200;2022-11-15T16:20:06;284.30;;;122.20;;
49934;SDS011;39898;41.762;26.200;2022-11-15T16:22:33;214.65;;;97.55;;
49934;SDS011;39898;41.762;26.200;2022-11-15T16:24:59;186.13;;;80.30;;
49934;SDS011;39898;41.762;26.200;2022-11-15T16:27:26;177.07;;;80.45;;
49934;SDS011;39898;41.762;26.200;2022-11-15T16:29:53;176.27;;;83.28;;
49934;SDS011;39898;41.762;26.200;2022-11-15T16:32:19;216.27;;;101.68;;
49934;SDS011;39898;41.762;26.200;2022-11-15T16:34:46;219.50;;;104.15;;
49934;SDS011;39898;41.762;26.200;2022-11-15T16:39:50;232.13;;;110.60;;
49934;SDS011;39898;41.762;26.200;2022-11-15T16:42:26;223.43;;;104.43;;
49934;SDS011;39898;41.762;26.200;2022-11-15T16:44:53;185.38;;;95.85;;
49934;SDS011;39898;41.762;26.200;2022-11-15T16:47:20;251.05;;;114.78;;
49934;SDS011;39898;41.762;26.200;2022-11-15T16:49:48;285.65;;;124.65;;
49934;SDS011;39898;41.762;26.200;2022-11-15T16:52:15;303.98;;;134.02;;
49934;SDS011;39898;41.762;26.200;2022-11-15T16:54:46;249.68;;;109.93;;
49934;SDS011;39898;41.762;26.200;2022-11-15T16:57:13;205.35;;;96.55;;
49934;SDS011;39898;41.762;26.200;2022-11-15T16:59:41;192.88;;;86.30;;
49934;SDS011;39898;41.762;26.200;2022-11-15T17:02:10;162.85;;;78.10;;
49934;SDS011;39898;41.762;26.200;2022-11-15T17:04:38;169.13;;;76.45;;
49934;SDS011;39898;41.762;26.200;2022-11-15T17:07:05;153.38;;;68.95;;
49934;SDS011;39898;41.762;26.200;2022-11-15T17:09:32;151.05;;;69.55;;
49934;SDS011;39898;41.762;26.200;2022-11-15T17:11:59;149.55;;;66.75;;
49934;SDS011;39898;41.762;26.200;2022-11-15T17:14:27;173.13;;;74.03;;
49934;SDS011;39898;41.762;26.200;2022-11-15T17:16:53;181.90;;;81.47;;
49934;SDS011;39898;41.762;26.200;2022-11-15T17:19:23;194.68;;;91.38;;